Strona główna
METAR-TAF:

METAR-TAF

Lotnisko :

Bluefield, Wirginia Zachodnia, Stany Zjednoczone

Szerokość geograficzna: 37-17-45N, Długość geograficzna: 081-12-28W, wysokość: 871 m

Aktualna obserwacja pogody

Raport powstał 43 minut temu, godzina 05:52 UTC
Cisza
Temperatura 9°C
Wilgotność 76%
Ciśnienie 1026 hPa
Widzialność: 16.1 km
bezchmurnie

METAR: KBLF 010552Z AUTO 00000KT 10SM CLR 09/05 A3030 RMK AO2 SLP243 T00940050 10167 20094 51005

czas: 02:35 (06:35 UTC)

Prognoza

Raport powstał 1 godzina i 12 minut temu, godzina 05:23 UTC
Prognoza ważna od 01 godzina 06 UTC do 02 godzina 06 UTC
Wiatr 4 kt z kierunków zmiennych
Widzialność: 10 km
bezchmurnie
Od 01 godzina 1500 UTC
Wiatr 5 kt od południowy wschód
Widzialność: 10 km
Mało chmury na wysokości 5000 ft
Od 01 godzina 1800 UTC
Wiatr 6 kt od zachód
Widzialność: 10 km
Rozproszone chmury na wysokości 5000 ft

TAF: KBLF 010523Z 0106/0206 VRB04KT P6SM SKC FM011500 14005KT P6SM FEW050 FM011800 28006KT P6SM SCT050

Obserwacja i prognoza pogody dla ponad 4000 lotnisk (raport METAR i TAF).

Dostępne stacje oznaczono żółtymi i czerwonymi punktami na mapie.

Najedź kursorem aby zobaczyć nazwę stacji.

Kliknij aby zobaczyć obserwacje i prognozy pogody.

Aby zmienić mapę: kliknij na zielony przycisk z czarnym krzyżykiem, aby powiększyć; na zielony przycisk z myślnikiem, aby pomniejszyć; na zielone strzałki, aby przejść do map sąsiednich.


METAR-TAF: